»·PEaware :: WAT169 KSFO-KRNO

WAT169 :: KSFO-KRNO

FLIGHT INFORMATION

Flight Status: Arrived
Operator:
Walker Air Transport
More flights by this operator :: More flights under this callsign
Pilot: Marty P. (27464)
Aircraft: DASSAULT AVIATION FALCON 50
(FA50)
More flights by this aircraft type
Origin: KSFO San Francisco Intl
United States
Destination: KRNO Reno/Tahoe Intl
United States
More flights between these airports :: More routes between these airports
Route: TRUKN2 ORRCA HOBOA HALLE PYRAM WALAR
File this flight plan on PilotEdge
Remarks: Hi <3
Altitude:
(Current/Filed)
27,000ft
Speed:
(Current/Filed)
480kts
Departed: 22-Nov-20 12:05 PM
Arrived: 22-Nov-20 12:42 PM
Distance/Time
Traveled:
167nm/0:36
Distance/Time
To Go:
Arrived

Flight Plot

Page will automatically refresh every two minutes.

Flight plan parsing failed; only flown route is shown


Map Options




Map Legend


Flown Route
Filed Route
Departure Airport
Arrival Airport
Navaid (VOR, NDB)
Fix

Horizontal Profiles

Position Reports

Time Latitude Longitude Heading Altitude Ground
Speed
22-Nov-20 11:49 37.627577 -122.383607 296 15ft 0kts
22-Nov-20 11:50 37.627577 -122.383607 296 15ft 0kts
22-Nov-20 11:51 37.627577 -122.383607 296 15ft 0kts
22-Nov-20 11:52 37.627577 -122.383607 296 15ft 0kts
22-Nov-20 11:53 37.627577 -122.383607 296 15ft 0kts
22-Nov-20 11:54 37.627577 -122.383607 296 15ft 0kts
22-Nov-20 11:55 37.627577 -122.383607 296 15ft 0kts
22-Nov-20 11:56 37.627577 -122.383607 296 15ft 0kts
22-Nov-20 11:57 37.627605 -122.383788 265 15ft 3kts
22-Nov-20 11:58 37.625669 -122.382378 118 20ft 19kts
22-Nov-20 11:59 37.623057 -122.376151 117 20ft 21kts
22-Nov-20 12:00 37.620179 -122.369291 117 10ft 20kts
22-Nov-20 12:01 37.617937 -122.363939 118 9ft 16kts
22-Nov-20 12:02 37.615716 -122.358643 118 7ft 17kts
22-Nov-20 12:03 37.614355 -122.356811 197 7ft 4kts
22-Nov-20 12:04 37.616123 -122.363367 299 10ft 66kts
22-Nov-20 12:05 37.639923 -122.395889 7 1795ft 170kts
22-Nov-20 12:06 37.666641 -122.345126 61 4611ft 216kts
22-Nov-20 12:07 37.697432 -122.266176 61 7937ft 264kts
22-Nov-20 12:08 37.742738 -122.191676 34 11240ft 310kts
22-Nov-20 12:09 37.822211 -122.120012 34 13685ft 371kts
22-Nov-20 12:10 37.908162 -122.042103 34 16715ft 390kts
22-Nov-20 12:11 37.997841 -121.960577 33 19017ft 404kts
22-Nov-20 12:12 38.096745 -121.870442 34 19148ft 470kts
22-Nov-20 12:13 38.195845 -121.779612 33 22814ft 434kts
22-Nov-20 12:14 38.294915 -121.688706 33 24572ft 445kts
22-Nov-20 12:15 38.392655 -121.598592 32 27154ft 428kts
22-Nov-20 12:16 38.488495 -121.494161 42 27139ft 478kts
22-Nov-20 12:17 38.585743 -121.370379 42 27136ft 509kts
22-Nov-20 12:18 38.686503 -121.241226 43 27127ft 525kts
22-Nov-20 12:19 38.790061 -121.107895 43 27117ft 533kts
22-Nov-20 12:20 38.894317 -120.973088 43 27102ft 536kts
22-Nov-20 12:21 38.998192 -120.838178 43 25179ft 534kts
22-Nov-20 12:22 39.099660 -120.705759 43 23177ft 508kts
22-Nov-20 12:23 39.196321 -120.579144 44 20887ft 484kts
22-Nov-20 12:24 39.287458 -120.459270 44 18504ft 454kts
22-Nov-20 12:25 39.372644 -120.346776 44 16490ft 416kts
22-Nov-20 12:26 39.461822 -120.265371 26 16041ft 383kts
22-Nov-20 12:27 39.554410 -120.202424 26 16020ft 355kts
22-Nov-20 12:28 39.633027 -120.148530 25 14435ft 295kts
22-Nov-20 12:29 39.703681 -120.100068 25 12504ft 264kts
22-Nov-20 12:30 39.766544 -120.056837 26 10320ft 252kts
22-Nov-20 12:31 39.787823 -119.988616 100 9515ft 215kts
22-Nov-20 12:32 39.778246 -119.908830 100 8434ft 228kts
22-Nov-20 12:33 39.768602 -119.828454 100 8407ft 221kts
22-Nov-20 12:34 39.742788 -119.775127 154 7711ft 151kts
22-Nov-20 12:35 39.705841 -119.769092 178 7518ft 134kts
22-Nov-20 12:36 39.666450 -119.768818 179 7509ft 143kts
22-Nov-20 12:37 39.624987 -119.768922 179 6758ft 143kts
22-Nov-20 12:38 39.586750 -119.769023 179 5978ft 132kts
22-Nov-20 12:39 39.550855 -119.769116 179 5273ft 129kts
22-Nov-20 12:40 39.514576 -119.769214 179 4550ft 132kts
22-Nov-20 12:41 39.497359 -119.768483 90 4422ft 9kts
22-Nov-20 12:42 39.497358 -119.766709 90 4422ft 14kts
22-Nov-20 12:43 39.498819 -119.765191 1 4422ft 13kts
22-Nov-20 12:44 39.500823 -119.765199 358 4422ft 6kts
22-Nov-20 12:45 39.501851 -119.764874 114 4422ft 2kts
22-Nov-20 12:46 39.501843 -119.764795 91 4422ft 0kts
22-Nov-20 12:47 39.501843 -119.764795 91 4422ft 0kts
22-Nov-20 12:48 39.501843 -119.764795 91 4422ft 0kts
22-Nov-20 12:49 39.501843 -119.764795 91 4422ft 0kts
22-Nov-20 12:50 39.501843 -119.764795 91 4422ft 0kts

Navigation Log

Ident Type
Flight plan parsing failed, navigation log unavailable